sensor_id;sensor_type;location;lat;lon;timestamp;P1;durP1;ratioP1;P2;durP2;ratioP2
60002;SDS011;46322;52.018;8.702;2022-08-25T00:02:27;5.95;;;3.17;;
60002;SDS011;46322;52.018;8.702;2022-08-25T00:07:27;5.70;;;2.87;;
60002;SDS011;46322;52.018;8.702;2022-08-25T00:12:27;5.50;;;3.47;;
60002;SDS011;46322;52.018;8.702;2022-08-25T00:17:27;5.10;;;3.45;;
60002;SDS011;46322;52.018;8.702;2022-08-25T00:22:28;6.57;;;3.08;;
60002;SDS011;46322;52.018;8.702;2022-08-25T00:27:28;9.73;;;3.80;;
60002;SDS011;46322;52.018;8.702;2022-08-25T00:32:28;5.77;;;3.00;;
60002;SDS011;46322;52.018;8.702;2022-08-25T00:37:29;6.45;;;2.90;;
60002;SDS011;46322;52.018;8.702;2022-08-25T00:42:29;21.33;;;4.10;;
60002;SDS011;46322;52.018;8.702;2022-08-25T00:47:29;5.47;;;2.70;;
60002;SDS011;46322;52.018;8.702;2022-08-25T00:52:35;5.33;;;3.03;;
60002;SDS011;46322;52.018;8.702;2022-08-25T00:57:39;7.15;;;2.97;;
60002;SDS011;46322;52.018;8.702;2022-08-25T01:02:44;5.07;;;2.63;;
60002;SDS011;46322;52.018;8.702;2022-08-25T01:07:45;6.00;;;3.10;;
60002;SDS011;46322;52.018;8.702;2022-08-25T01:12:45;7.20;;;3.00;;
60002;SDS011;46322;52.018;8.702;2022-08-25T01:17:50;6.87;;;2.93;;
60002;SDS011;46322;52.018;8.702;2022-08-25T01:22:52;7.20;;;3.08;;
60002;SDS011;46322;52.018;8.702;2022-08-25T01:27:53;5.37;;;3.20;;
60002;SDS011;46322;52.018;8.702;2022-08-25T01:32:53;5.60;;;2.72;;
60002;SDS011;46322;52.018;8.702;2022-08-25T01:37:53;4.57;;;2.90;;
60002;SDS011;46322;52.018;8.702;2022-08-25T01:48:06;7.05;;;3.58;;
60002;SDS011;46322;52.018;8.702;2022-08-25T01:53:11;6.28;;;3.42;;
60002;SDS011;46322;52.018;8.702;2022-08-25T01:58:17;7.33;;;3.30;;
60002;SDS011;46322;52.018;8.702;2022-08-25T02:03:18;7.55;;;3.50;;
60002;SDS011;46322;52.018;8.702;2022-08-25T02:08:20;6.90;;;3.25;;
60002;SDS011;46322;52.018;8.702;2022-08-25T02:13:21;6.23;;;3.50;;
60002;SDS011;46322;52.018;8.702;2022-08-25T02:18:22;6.30;;;3.80;;
60002;SDS011;46322;52.018;8.702;2022-08-25T02:23:22;7.13;;;3.70;;
60002;SDS011;46322;52.018;8.702;2022-08-25T02:28:23;6.87;;;4.20;;
60002;SDS011;46322;52.018;8.702;2022-08-25T02:33:24;8.15;;;3.65;;
60002;SDS011;46322;52.018;8.702;2022-08-25T02:38:25;10.27;;;3.70;;
60002;SDS011;46322;52.018;8.702;2022-08-25T02:43:29;7.85;;;3.83;;
60002;SDS011;46322;52.018;8.702;2022-08-25T02:48:32;7.80;;;3.65;;
60002;SDS011;46322;52.018;8.702;2022-08-25T02:53:32;8.23;;;3.63;;
60002;SDS011;46322;52.018;8.702;2022-08-25T02:58:34;6.97;;;3.90;;
60002;SDS011;46322;52.018;8.702;2022-08-25T03:03:37;8.13;;;4.10;;
60002;SDS011;46322;52.018;8.702;2022-08-25T03:08:38;8.45;;;3.90;;
60002;SDS011;46322;52.018;8.702;2022-08-25T03:13:39;6.83;;;4.30;;
60002;SDS011;46322;52.018;8.702;2022-08-25T03:18:40;10.20;;;6.00;;
60002;SDS011;46322;52.018;8.702;2022-08-25T03:23:41;10.53;;;5.40;;
60002;SDS011;46322;52.018;8.702;2022-08-25T03:28:42;9.13;;;5.38;;
60002;SDS011;46322;52.018;8.702;2022-08-25T03:33:42;6.95;;;4.30;;
60002;SDS011;46322;52.018;8.702;2022-08-25T03:38:44;7.97;;;4.32;;
60002;SDS011;46322;52.018;8.702;2022-08-25T03:43:44;6.60;;;4.30;;
60002;SDS011;46322;52.018;8.702;2022-08-25T03:48:45;8.17;;;4.47;;
60002;SDS011;46322;52.018;8.702;2022-08-25T03:53:45;8.40;;;4.20;;
60002;SDS011;46322;52.018;8.702;2022-08-25T03:58:46;10.03;;;3.80;;
60002;SDS011;46322;52.018;8.702;2022-08-25T04:03:46;9.70;;;4.47;;
60002;SDS011;46322;52.018;8.702;2022-08-25T04:08:47;8.13;;;4.10;;
60002;SDS011;46322;52.018;8.702;2022-08-25T04:13:48;6.77;;;4.23;;
60002;SDS011;46322;52.018;8.702;2022-08-25T04:18:49;9.98;;;4.60;;
60002;SDS011;46322;52.018;8.702;2022-08-25T04:23:51;28.13;;;8.13;;
60002;SDS011;46322;52.018;8.702;2022-08-25T04:28:53;13.60;;;5.30;;
60002;SDS011;46322;52.018;8.702;2022-08-25T04:33:53;9.77;;;5.50;;
60002;SDS011;46322;52.018;8.702;2022-08-25T04:38:53;10.00;;;4.60;;
60002;SDS011;46322;52.018;8.702;2022-08-25T04:43:55;10.40;;;4.80;;
60002;SDS011;46322;52.018;8.702;2022-08-25T04:48:56;9.55;;;4.82;;
60002;SDS011;46322;52.018;8.702;2022-08-25T04:53:58;9.32;;;4.35;;
60002;SDS011;46322;52.018;8.702;2022-08-25T04:59:01;6.93;;;4.87;;
60002;SDS011;46322;52.018;8.702;2022-08-25T05:04:04;13.27;;;4.50;;
60002;SDS011;46322;52.018;8.702;2022-08-25T05:09:06;8.43;;;4.35;;
60002;SDS011;46322;52.018;8.702;2022-08-25T05:14:06;17.33;;;4.80;;
60002;SDS011;46322;52.018;8.702;2022-08-25T05:19:07;21.77;;;5.37;;
60002;SDS011;46322;52.018;8.702;2022-08-25T05:24:07;11.97;;;5.20;;
60002;SDS011;46322;52.018;8.702;2022-08-25T05:29:08;10.83;;;4.87;;
60002;SDS011;46322;52.018;8.702;2022-08-25T05:34:08;11.18;;;4.90;;
60002;SDS011;46322;52.018;8.702;2022-08-25T05:39:09;11.17;;;5.50;;
60002;SDS011;46322;52.018;8.702;2022-08-25T05:44:09;9.10;;;5.25;;
60002;SDS011;46322;52.018;8.702;2022-08-25T05:49:10;8.93;;;5.27;;
60002;SDS011;46322;52.018;8.702;2022-08-25T05:54:10;9.63;;;5.53;;
60002;SDS011;46322;52.018;8.702;2022-08-25T05:59:10;11.37;;;5.83;;
60002;SDS011;46322;52.018;8.702;2022-08-25T06:04:12;9.23;;;5.63;;
60002;SDS011;46322;52.018;8.702;2022-08-25T06:09:13;9.73;;;5.38;;
60002;SDS011;46322;52.018;8.702;2022-08-25T06:14:14;8.85;;;5.22;;
60002;SDS011;46322;52.018;8.702;2022-08-25T06:19:29;8.50;;;5.20;;
60002;SDS011;46322;52.018;8.702;2022-08-25T06:24:29;9.50;;;5.15;;
60002;SDS011;46322;52.018;8.702;2022-08-25T06:29:46;7.90;;;5.30;;
60002;SDS011;46322;52.018;8.702;2022-08-25T06:34:46;9.05;;;5.18;;
60002;SDS011;46322;52.018;8.702;2022-08-25T06:39:48;8.17;;;4.97;;
60002;SDS011;46322;52.018;8.702;2022-08-25T06:44:48;8.40;;;5.07;;
60002;SDS011;46322;52.018;8.702;2022-08-25T06:50:09;9.23;;;4.90;;
60002;SDS011;46322;52.018;8.702;2022-08-25T06:55:09;8.50;;;5.35;;
60002;SDS011;46322;52.018;8.702;2022-08-25T07:00:10;8.30;;;4.93;;
60002;SDS011;46322;52.018;8.702;2022-08-25T07:05:10;10.30;;;5.20;;
60002;SDS011;46322;52.018;8.702;2022-08-25T07:10:11;8.38;;;4.95;;
60002;SDS011;46322;52.018;8.702;2022-08-25T07:15:12;10.80;;;5.30;;
60002;SDS011;46322;52.018;8.702;2022-08-25T07:20:14;9.67;;;5.30;;
60002;SDS011;46322;52.018;8.702;2022-08-25T07:25:16;10.18;;;6.03;;
60002;SDS011;46322;52.018;8.702;2022-08-25T07:30:16;9.40;;;5.53;;
60002;SDS011;46322;52.018;8.702;2022-08-25T07:35:17;9.20;;;6.15;;
60002;SDS011;46322;52.018;8.702;2022-08-25T07:40:24;12.93;;;6.13;;
60002;SDS011;46322;52.018;8.702;2022-08-25T07:45:27;9.52;;;6.25;;
60002;SDS011;46322;52.018;8.702;2022-08-25T07:50:30;11.18;;;6.40;;
60002;SDS011;46322;52.018;8.702;2022-08-25T07:55:32;10.50;;;6.63;;
60002;SDS011;46322;52.018;8.702;2022-08-25T08:00:32;16.63;;;6.97;;
60002;SDS011;46322;52.018;8.702;2022-08-25T08:05:34;12.02;;;7.55;;
60002;SDS011;46322;52.018;8.702;2022-08-25T08:10:37;13.43;;;8.20;;
60002;SDS011;46322;52.018;8.702;2022-08-25T08:15:41;14.57;;;8.68;;
60002;SDS011;46322;52.018;8.702;2022-08-25T08:20:43;15.18;;;9.05;;
60002;SDS011;46322;52.018;8.702;2022-08-25T08:25:47;12.00;;;8.50;;
60002;SDS011;46322;52.018;8.702;2022-08-25T08:30:47;12.43;;;9.10;;
60002;SDS011;46322;52.018;8.702;2022-08-25T08:35:53;15.40;;;9.97;;
60002;SDS011;46322;52.018;8.702;2022-08-25T08:46:04;14.43;;;9.60;;
60002;SDS011;46322;52.018;8.702;2022-08-25T08:51:11;15.27;;;10.27;;
60002;SDS011;46322;52.018;8.702;2022-08-25T08:56:25;15.60;;;10.25;;
60002;SDS011;46322;52.018;8.702;2022-08-25T09:01:40;15.43;;;10.23;;
60002;SDS011;46322;52.018;8.702;2022-08-25T09:06:45;14.27;;;9.80;;
60002;SDS011;46322;52.018;8.702;2022-08-25T09:22:16;14.23;;;9.90;;
60002;SDS011;46322;52.018;8.702;2022-08-25T09:27:56;12.97;;;9.40;;
60002;SDS011;46322;52.018;8.702;2022-08-25T09:32:55;14.40;;;9.70;;
60002;SDS011;46322;52.018;8.702;2022-08-25T09:37:59;15.30;;;9.73;;
60002;SDS011;46322;52.018;8.702;2022-08-25T09:48:31;13.60;;;9.77;;
60002;SDS011;46322;52.018;8.702;2022-08-25T09:53:33;13.17;;;9.20;;
60002;SDS011;46322;52.018;8.702;2022-08-25T09:58:33;13.90;;;9.40;;
60002;SDS011;46322;52.018;8.702;2022-08-25T10:03:34;13.33;;;9.73;;
60002;SDS011;46322;52.018;8.702;2022-08-25T10:08:36;13.48;;;9.35;;
60002;SDS011;46322;52.018;8.702;2022-08-25T10:18:39;12.35;;;9.68;;
60002;SDS011;46322;52.018;8.702;2022-08-25T10:23:41;13.37;;;9.50;;
60002;SDS011;46322;52.018;8.702;2022-08-25T10:28:51;14.80;;;9.47;;
60002;SDS011;46322;52.018;8.702;2022-08-25T10:34:02;11.50;;;8.67;;
60002;SDS011;46322;52.018;8.702;2022-08-25T10:45:07;12.93;;;8.93;;
60002;SDS011;46322;52.018;8.702;2022-08-25T10:56:11;11.52;;;8.50;;
60002;SDS011;46322;52.018;8.702;2022-08-25T11:12:11;15.60;;;8.73;;
60002;SDS011;46322;52.018;8.702;2022-08-25T11:17:15;12.02;;;8.02;;
60002;SDS011;46322;52.018;8.702;2022-08-25T11:27:51;12.37;;;8.07;;
60002;SDS011;46322;52.018;8.702;2022-08-25T11:32:53;11.52;;;8.18;;
60002;SDS011;46322;52.018;8.702;2022-08-25T11:43:39;16.17;;;8.63;;
60002;SDS011;46322;52.018;8.702;2022-08-25T12:04:49;13.73;;;9.85;;
60002;SDS011;46322;52.018;8.702;2022-08-25T12:20:17;11.63;;;9.50;;
60002;SDS011;46322;52.018;8.702;2022-08-25T12:25:27;12.07;;;9.43;;
60002;SDS011;46322;52.018;8.702;2022-08-25T12:51:26;11.43;;;8.07;;
60002;SDS011;46322;52.018;8.702;2022-08-25T12:56:44;11.05;;;8.60;;
60002;SDS011;46322;52.018;8.702;2022-08-25T13:07:24;9.43;;;8.27;;
60002;SDS011;46322;52.018;8.702;2022-08-25T13:12:32;10.43;;;8.07;;
60002;SDS011;46322;52.018;8.702;2022-08-25T13:17:39;10.10;;;7.63;;
60002;SDS011;46322;52.018;8.702;2022-08-25T13:22:40;10.53;;;7.73;;
60002;SDS011;46322;52.018;8.702;2022-08-25T13:27:52;9.52;;;8.13;;
60002;SDS011;46322;52.018;8.702;2022-08-25T13:32:56;8.88;;;7.40;;
60002;SDS011;46322;52.018;8.702;2022-08-25T13:38:12;8.43;;;7.40;;
60002;SDS011;46322;52.018;8.702;2022-08-25T13:43:16;8.93;;;7.57;;
60002;SDS011;46322;52.018;8.702;2022-08-25T13:48:30;9.30;;;7.93;;
60002;SDS011;46322;52.018;8.702;2022-08-25T13:53:37;10.93;;;7.88;;
60002;SDS011;46322;52.018;8.702;2022-08-25T13:58:40;10.77;;;8.30;;
60002;SDS011;46322;52.018;8.702;2022-08-25T14:03:42;9.57;;;8.20;;
60002;SDS011;46322;52.018;8.702;2022-08-25T14:08:46;10.10;;;8.30;;
60002;SDS011;46322;52.018;8.702;2022-08-25T14:19:04;9.80;;;8.07;;
60002;SDS011;46322;52.018;8.702;2022-08-25T14:24:07;10.15;;;7.95;;
60002;SDS011;46322;52.018;8.702;2022-08-25T14:29:07;10.97;;;8.30;;
60002;SDS011;46322;52.018;8.702;2022-08-25T14:34:18;10.15;;;8.40;;
60002;SDS011;46322;52.018;8.702;2022-08-25T14:39:27;9.13;;;7.90;;
60002;SDS011;46322;52.018;8.702;2022-08-25T14:44:27;9.05;;;7.78;;
60002;SDS011;46322;52.018;8.702;2022-08-25T14:49:32;10.03;;;8.40;;
60002;SDS011;46322;52.018;8.702;2022-08-25T14:54:34;9.53;;;7.40;;
60002;SDS011;46322;52.018;8.702;2022-08-25T14:59:50;9.73;;;8.20;;
60002;SDS011;46322;52.018;8.702;2022-08-25T15:04:53;9.90;;;7.40;;
60002;SDS011;46322;52.018;8.702;2022-08-25T15:10:02;9.67;;;7.80;;
60002;SDS011;46322;52.018;8.702;2022-08-25T15:15:03;10.60;;;8.57;;
60002;SDS011;46322;52.018;8.702;2022-08-25T15:20:23;9.87;;;8.50;;
60002;SDS011;46322;52.018;8.702;2022-08-25T15:25:23;10.10;;;8.95;;
60002;SDS011;46322;52.018;8.702;2022-08-25T15:30:23;10.90;;;8.35;;
60002;SDS011;46322;52.018;8.702;2022-08-25T15:35:24;10.65;;;8.13;;
60002;SDS011;46322;52.018;8.702;2022-08-25T15:40:24;8.65;;;7.47;;
60002;SDS011;46322;52.018;8.702;2022-08-25T15:45:26;9.70;;;8.68;;
60002;SDS011;46322;52.018;8.702;2022-08-25T15:50:26;10.90;;;8.50;;
60002;SDS011;46322;52.018;8.702;2022-08-25T15:55:27;9.93;;;7.80;;
60002;SDS011;46322;52.018;8.702;2022-08-25T16:00:27;10.87;;;8.07;;
60002;SDS011;46322;52.018;8.702;2022-08-25T16:05:27;8.83;;;7.47;;
60002;SDS011;46322;52.018;8.702;2022-08-25T16:10:31;11.52;;;8.50;;
60002;SDS011;46322;52.018;8.702;2022-08-25T16:15:32;9.60;;;7.80;;
60002;SDS011;46322;52.018;8.702;2022-08-25T16:20:33;10.77;;;8.47;;
60002;SDS011;46322;52.018;8.702;2022-08-25T16:25:37;9.20;;;7.90;;
60002;SDS011;46322;52.018;8.702;2022-08-25T16:30:47;11.07;;;7.73;;
60002;SDS011;46322;52.018;8.702;2022-08-25T16:35:48;9.88;;;7.50;;
60002;SDS011;46322;52.018;8.702;2022-08-25T16:40:48;9.30;;;8.05;;
60002;SDS011;46322;52.018;8.702;2022-08-25T16:45:56;10.82;;;7.82;;
60002;SDS011;46322;52.018;8.702;2022-08-25T16:50:57;9.47;;;7.77;;
60002;SDS011;46322;52.018;8.702;2022-08-25T16:56:01;9.57;;;7.75;;
60002;SDS011;46322;52.018;8.702;2022-08-25T17:01:07;11.23;;;8.15;;
60002;SDS011;46322;52.018;8.702;2022-08-25T17:06:15;10.77;;;7.18;;
60002;SDS011;46322;52.018;8.702;2022-08-25T17:11:17;12.33;;;8.60;;
60002;SDS011;46322;52.018;8.702;2022-08-25T17:16:26;10.43;;;8.20;;
60002;SDS011;46322;52.018;8.702;2022-08-25T17:21:30;10.83;;;8.97;;
60002;SDS011;46322;52.018;8.702;2022-08-25T17:26:33;10.85;;;8.45;;
60002;SDS011;46322;52.018;8.702;2022-08-25T17:31:36;9.70;;;8.23;;
60002;SDS011;46322;52.018;8.702;2022-08-25T17:36:38;11.50;;;8.30;;
60002;SDS011;46322;52.018;8.702;2022-08-25T17:41:39;10.65;;;8.35;;
60002;SDS011;46322;52.018;8.702;2022-08-25T17:46:41;10.98;;;7.75;;
60002;SDS011;46322;52.018;8.702;2022-08-25T17:51:41;11.07;;;7.90;;
60002;SDS011;46322;52.018;8.702;2022-08-25T17:56:43;10.55;;;8.18;;
60002;SDS011;46322;52.018;8.702;2022-08-25T18:01:43;10.57;;;7.53;;
60002;SDS011;46322;52.018;8.702;2022-08-25T18:06:44;11.63;;;7.90;;
60002;SDS011;46322;52.018;8.702;2022-08-25T18:11:45;12.07;;;7.70;;
60002;SDS011;46322;52.018;8.702;2022-08-25T18:16:46;13.00;;;8.82;;
60002;SDS011;46322;52.018;8.702;2022-08-25T18:21:46;11.48;;;8.23;;
60002;SDS011;46322;52.018;8.702;2022-08-25T18:26:47;11.23;;;8.27;;
60002;SDS011;46322;52.018;8.702;2022-08-25T18:31:47;11.73;;;8.48;;
60002;SDS011;46322;52.018;8.702;2022-08-25T18:36:47;12.95;;;8.30;;
60002;SDS011;46322;52.018;8.702;2022-08-25T18:41:47;13.03;;;8.70;;
60002;SDS011;46322;52.018;8.702;2022-08-25T18:46:48;14.95;;;8.50;;
60002;SDS011;46322;52.018;8.702;2022-08-25T18:51:48;10.55;;;8.32;;
60002;SDS011;46322;52.018;8.702;2022-08-25T18:56:50;14.07;;;9.07;;
60002;SDS011;46322;52.018;8.702;2022-08-25T19:01:52;30.45;;;10.18;;
60002;SDS011;46322;52.018;8.702;2022-08-25T19:06:52;13.80;;;8.70;;
60002;SDS011;46322;52.018;8.702;2022-08-25T19:11:52;12.82;;;9.40;;
60002;SDS011;46322;52.018;8.702;2022-08-25T19:16:53;16.47;;;8.90;;
60002;SDS011;46322;52.018;8.702;2022-08-25T19:21:53;14.57;;;8.73;;
60002;SDS011;46322;52.018;8.702;2022-08-25T19:26:53;14.13;;;9.50;;
60002;SDS011;46322;52.018;8.702;2022-08-25T19:31:54;20.63;;;9.23;;
60002;SDS011;46322;52.018;8.702;2022-08-25T19:36:55;15.87;;;9.10;;
60002;SDS011;46322;52.018;8.702;2022-08-25T19:41:56;14.30;;;8.77;;
60002;SDS011;46322;52.018;8.702;2022-08-25T19:46:57;15.67;;;9.23;;
60002;SDS011;46322;52.018;8.702;2022-08-25T19:51:58;22.38;;;10.40;;
60002;SDS011;46322;52.018;8.702;2022-08-25T19:57:01;15.57;;;9.20;;
60002;SDS011;46322;52.018;8.702;2022-08-25T20:02:04;14.80;;;8.68;;
60002;SDS011;46322;52.018;8.702;2022-08-25T20:07:06;14.65;;;9.30;;
60002;SDS011;46322;52.018;8.702;2022-08-25T20:12:07;13.73;;;9.33;;
60002;SDS011;46322;52.018;8.702;2022-08-25T20:17:09;16.63;;;10.02;;
60002;SDS011;46322;52.018;8.702;2022-08-25T20:22:09;14.53;;;9.67;;
60002;SDS011;46322;52.018;8.702;2022-08-25T20:27:10;14.33;;;9.53;;
60002;SDS011;46322;52.018;8.702;2022-08-25T20:32:11;14.93;;;10.50;;
60002;SDS011;46322;52.018;8.702;2022-08-25T20:37:11;14.30;;;10.45;;
60002;SDS011;46322;52.018;8.702;2022-08-25T20:42:12;16.63;;;10.10;;
60002;SDS011;46322;52.018;8.702;2022-08-25T20:47:12;17.35;;;9.93;;
60002;SDS011;46322;52.018;8.702;2022-08-25T20:52:13;11.97;;;9.70;;
60002;SDS011;46322;52.018;8.702;2022-08-25T20:57:13;17.67;;;11.30;;
60002;SDS011;46322;52.018;8.702;2022-08-25T21:02:14;16.73;;;11.23;;
60002;SDS011;46322;52.018;8.702;2022-08-25T21:07:14;18.57;;;11.00;;
60002;SDS011;46322;52.018;8.702;2022-08-25T21:12:15;16.77;;;10.18;;
60002;SDS011;46322;52.018;8.702;2022-08-25T21:17:15;14.20;;;10.53;;
60002;SDS011;46322;52.018;8.702;2022-08-25T21:22:16;14.77;;;9.60;;
60002;SDS011;46322;52.018;8.702;2022-08-25T21:27:16;16.03;;;10.17;;
60002;SDS011;46322;52.018;8.702;2022-08-25T21:32:16;14.33;;;10.07;;
60002;SDS011;46322;52.018;8.702;2022-08-25T21:37:17;15.23;;;10.53;;
60002;SDS011;46322;52.018;8.702;2022-08-25T21:42:19;16.07;;;10.33;;
60002;SDS011;46322;52.018;8.702;2022-08-25T21:47:21;17.58;;;11.40;;
60002;SDS011;46322;52.018;8.702;2022-08-25T21:52:22;17.30;;;11.60;;
60002;SDS011;46322;52.018;8.702;2022-08-25T21:57:22;16.90;;;11.97;;
60002;SDS011;46322;52.018;8.702;2022-08-25T22:02:23;16.70;;;11.30;;
60002;SDS011;46322;52.018;8.702;2022-08-25T22:07:23;19.10;;;12.53;;
60002;SDS011;46322;52.018;8.702;2022-08-25T22:12:24;17.48;;;11.80;;
60002;SDS011;46322;52.018;8.702;2022-08-25T22:17:24;17.07;;;11.70;;
60002;SDS011;46322;52.018;8.702;2022-08-25T22:22:25;16.63;;;11.60;;
60002;SDS011;46322;52.018;8.702;2022-08-25T22:27:26;17.15;;;12.05;;
60002;SDS011;46322;52.018;8.702;2022-08-25T22:32:26;17.58;;;12.38;;
60002;SDS011;46322;52.018;8.702;2022-08-25T22:37:27;17.30;;;12.03;;
60002;SDS011;46322;52.018;8.702;2022-08-25T22:42:27;21.07;;;12.67;;
60002;SDS011;46322;52.018;8.702;2022-08-25T22:47:27;19.13;;;12.33;;
60002;SDS011;46322;52.018;8.702;2022-08-25T22:52:28;21.50;;;13.23;;
60002;SDS011;46322;52.018;8.702;2022-08-25T22:57:28;18.43;;;13.20;;
60002;SDS011;46322;52.018;8.702;2022-08-25T23:02:28;16.97;;;12.13;;
60002;SDS011;46322;52.018;8.702;2022-08-25T23:07:29;20.13;;;12.60;;
60002;SDS011;46322;52.018;8.702;2022-08-25T23:12:29;24.03;;;13.80;;
60002;SDS011;46322;52.018;8.702;2022-08-25T23:17:33;17.97;;;13.50;;
60002;SDS011;46322;52.018;8.702;2022-08-25T23:22:34;17.63;;;12.80;;
60002;SDS011;46322;52.018;8.702;2022-08-25T23:27:34;17.95;;;13.05;;
60002;SDS011;46322;52.018;8.702;2022-08-25T23:32:34;22.52;;;13.80;;
60002;SDS011;46322;52.018;8.702;2022-08-25T23:37:35;19.33;;;12.57;;
60002;SDS011;46322;52.018;8.702;2022-08-25T23:42:35;18.23;;;12.73;;
60002;SDS011;46322;52.018;8.702;2022-08-25T23:47:36;21.27;;;13.50;;
60002;SDS011;46322;52.018;8.702;2022-08-25T23:52:36;19.88;;;13.45;;
60002;SDS011;46322;52.018;8.702;2022-08-25T23:57:36;18.85;;;12.18;;
